sensor_id;sensor_type;location;lat;lon;timestamp;temperature;humidity
69628;DHT22;56850;51.984;5.088;2023-03-29T00:00:06;7.90;68.40
69628;DHT22;56850;51.984;5.088;2023-03-29T00:02:43;7.90;68.40
69628;DHT22;56850;51.984;5.088;2023-03-29T00:05:16;7.90;68.30
69628;DHT22;56850;51.984;5.088;2023-03-29T00:07:44;7.90;68.40
69628;DHT22;56850;51.984;5.088;2023-03-29T00:10:11;7.90;68.30
69628;DHT22;56850;51.984;5.088;2023-03-29T00:12:39;7.90;68.20
69628;DHT22;56850;51.984;5.088;2023-03-29T00:15:07;7.90;68.30
69628;DHT22;56850;51.984;5.088;2023-03-29T00:17:34;7.90;68.20
69628;DHT22;56850;51.984;5.088;2023-03-29T00:20:02;7.90;68.30
69628;DHT22;56850;51.984;5.088;2023-03-29T00:22:31;7.90;68.30
69628;DHT22;56850;51.984;5.088;2023-03-29T00:24:58;7.90;68.20
69628;DHT22;56850;51.984;5.088;2023-03-29T00:27:25;7.90;68.20
69628;DHT22;56850;51.984;5.088;2023-03-29T00:29:52;7.90;68.20
69628;DHT22;56850;51.984;5.088;2023-03-29T00:32:19;7.90;68.20
69628;DHT22;56850;51.984;5.088;2023-03-29T00:34:46;8.00;68.10
69628;DHT22;56850;51.984;5.088;2023-03-29T00:37:19;8.00;68.00
69628;DHT22;56850;51.984;5.088;2023-03-29T00:39:46;8.00;68.00
69628;DHT22;56850;51.984;5.088;2023-03-29T00:42:15;8.00;68.00
69628;DHT22;56850;51.984;5.088;2023-03-29T00:47:35;8.00;67.90
69628;DHT22;56850;51.984;5.088;2023-03-29T00:50:16;8.00;67.90
69628;DHT22;56850;51.984;5.088;2023-03-29T00:52:54;7.90;67.90
69628;DHT22;56850;51.984;5.088;2023-03-29T00:55:24;8.00;67.90
69628;DHT22;56850;51.984;5.088;2023-03-29T00:57:52;8.00;67.90
69628;DHT22;56850;51.984;5.088;2023-03-29T01:00:25;8.00;67.80
69628;DHT22;56850;51.984;5.088;2023-03-29T01:02:56;8.00;67.80
69628;DHT22;56850;51.984;5.088;2023-03-29T01:05:29;8.00;67.80
69628;DHT22;56850;51.984;5.088;2023-03-29T01:08:03;8.00;67.80
69628;DHT22;56850;51.984;5.088;2023-03-29T01:10:40;8.00;67.70
69628;DHT22;56850;51.984;5.088;2023-03-29T01:13:12;8.00;67.80
69628;DHT22;56850;51.984;5.088;2023-03-29T01:15:43;8.00;67.70
69628;DHT22;56850;51.984;5.088;2023-03-29T01:18:12;8.10;67.70
69628;DHT22;56850;51.984;5.088;2023-03-29T01:29:08;8.10;67.60
69628;DHT22;56850;51.984;5.088;2023-03-29T01:31:40;8.10;67.60
69628;DHT22;56850;51.984;5.088;2023-03-29T01:34:34;8.10;67.50
69628;DHT22;56850;51.984;5.088;2023-03-29T01:37:12;8.20;67.50
69628;DHT22;56850;51.984;5.088;2023-03-29T01:39:41;8.20;67.50
69628;DHT22;56850;51.984;5.088;2023-03-29T01:47:16;8.20;67.50
69628;DHT22;56850;51.984;5.088;2023-03-29T01:52:31;8.20;67.50
69628;DHT22;56850;51.984;5.088;2023-03-29T01:55:05;8.20;67.60
69628;DHT22;56850;51.984;5.088;2023-03-29T01:57:35;8.20;67.60
69628;DHT22;56850;51.984;5.088;2023-03-29T02:00:05;8.30;67.60
69628;DHT22;56850;51.984;5.088;2023-03-29T02:02:38;8.30;67.60
69628;DHT22;56850;51.984;5.088;2023-03-29T02:05:08;8.30;67.60
69628;DHT22;56850;51.984;5.088;2023-03-29T02:07:36;8.30;67.60
69628;DHT22;56850;51.984;5.088;2023-03-29T02:10:06;8.30;67.70
69628;DHT22;56850;51.984;5.088;2023-03-29T02:12:34;8.30;67.70
69628;DHT22;56850;51.984;5.088;2023-03-29T02:15:01;8.30;67.70
69628;DHT22;56850;51.984;5.088;2023-03-29T02:17:33;8.30;67.70
69628;DHT22;56850;51.984;5.088;2023-03-29T02:20:14;8.30;67.80
69628;DHT22;56850;51.984;5.088;2023-03-29T02:23:11;8.30;67.80
69628;DHT22;56850;51.984;5.088;2023-03-29T02:25:41;8.40;67.80
69628;DHT22;56850;51.984;5.088;2023-03-29T02:28:08;8.40;67.80
69628;DHT22;56850;51.984;5.088;2023-03-29T02:31:06;8.40;67.80
69628;DHT22;56850;51.984;5.088;2023-03-29T02:33:56;8.40;67.80
69628;DHT22;56850;51.984;5.088;2023-03-29T02:38:56;8.50;67.70
69628;DHT22;56850;51.984;5.088;2023-03-29T02:41:25;8.50;67.70
69628;DHT22;56850;51.984;5.088;2023-03-29T02:43:53;8.50;67.80
69628;DHT22;56850;51.984;5.088;2023-03-29T02:46:22;8.50;67.70
69628;DHT22;56850;51.984;5.088;2023-03-29T02:48:51;8.50;67.80
69628;DHT22;56850;51.984;5.088;2023-03-29T02:51:21;8.50;67.80
69628;DHT22;56850;51.984;5.088;2023-03-29T02:53:55;8.50;67.70
69628;DHT22;56850;51.984;5.088;2023-03-29T02:56:24;8.50;67.80
69628;DHT22;56850;51.984;5.088;2023-03-29T02:58:51;8.50;67.80
69628;DHT22;56850;51.984;5.088;2023-03-29T03:01:18;8.50;67.80
69628;DHT22;56850;51.984;5.088;2023-03-29T03:03:48;8.50;67.70
69628;DHT22;56850;51.984;5.088;2023-03-29T03:06:17;8.50;67.70
69628;DHT22;56850;51.984;5.088;2023-03-29T03:08:44;8.60;67.70
69628;DHT22;56850;51.984;5.088;2023-03-29T03:11:11;8.60;67.70
69628;DHT22;56850;51.984;5.088;2023-03-29T03:13:38;8.50;67.60
69628;DHT22;56850;51.984;5.088;2023-03-29T03:16:06;8.50;67.70
69628;DHT22;56850;51.984;5.088;2023-03-29T03:18:34;8.60;67.70
69628;DHT22;56850;51.984;5.088;2023-03-29T03:21:01;8.50;67.80
69628;DHT22;56850;51.984;5.088;2023-03-29T03:23:31;8.60;67.80
69628;DHT22;56850;51.984;5.088;2023-03-29T03:25:58;8.60;67.80
69628;DHT22;56850;51.984;5.088;2023-03-29T03:28:25;8.60;67.70
69628;DHT22;56850;51.984;5.088;2023-03-29T03:30:53;8.60;67.80
69628;DHT22;56850;51.984;5.088;2023-03-29T03:33:55;8.60;67.80
69628;DHT22;56850;51.984;5.088;2023-03-29T03:36:45;8.60;67.70
69628;DHT22;56850;51.984;5.088;2023-03-29T03:39:13;8.60;67.70
69628;DHT22;56850;51.984;5.088;2023-03-29T03:41:41;8.60;67.70
69628;DHT22;56850;51.984;5.088;2023-03-29T03:44:08;8.60;67.70
69628;DHT22;56850;51.984;5.088;2023-03-29T03:46:35;8.60;67.60
69628;DHT22;56850;51.984;5.088;2023-03-29T03:49:03;8.60;67.60
69628;DHT22;56850;51.984;5.088;2023-03-29T03:51:36;8.60;67.50
69628;DHT22;56850;51.984;5.088;2023-03-29T03:54:03;8.70;67.50
69628;DHT22;56850;51.984;5.088;2023-03-29T03:56:30;8.70;67.50
69628;DHT22;56850;51.984;5.088;2023-03-29T03:59:03;8.60;67.40
69628;DHT22;56850;51.984;5.088;2023-03-29T04:01:47;8.60;67.50
69628;DHT22;56850;51.984;5.088;2023-03-29T04:04:18;8.60;67.50
69628;DHT22;56850;51.984;5.088;2023-03-29T04:07:02;8.70;67.50
69628;DHT22;56850;51.984;5.088;2023-03-29T04:09:35;8.70;67.50
69628;DHT22;56850;51.984;5.088;2023-03-29T04:12:29;8.70;67.40
69628;DHT22;56850;51.984;5.088;2023-03-29T04:14:56;8.70;67.40
69628;DHT22;56850;51.984;5.088;2023-03-29T04:17:25;8.70;67.40
69628;DHT22;56850;51.984;5.088;2023-03-29T04:20:11;8.70;67.40
69628;DHT22;56850;51.984;5.088;2023-03-29T04:22:40;8.80;67.40
69628;DHT22;56850;51.984;5.088;2023-03-29T04:25:08;8.70;67.20
69628;DHT22;56850;51.984;5.088;2023-03-29T04:27:37;8.80;67.40
69628;DHT22;56850;51.984;5.088;2023-03-29T04:30:12;8.70;67.40
69628;DHT22;56850;51.984;5.088;2023-03-29T04:33:04;8.80;67.30
69628;DHT22;56850;51.984;5.088;2023-03-29T04:35:32;8.80;67.40
69628;DHT22;56850;51.984;5.088;2023-03-29T04:37:59;8.80;67.40
69628;DHT22;56850;51.984;5.088;2023-03-29T04:40:27;8.70;67.40
69628;DHT22;56850;51.984;5.088;2023-03-29T04:43:10;8.70;67.50
69628;DHT22;56850;51.984;5.088;2023-03-29T04:45:45;8.80;67.50
69628;DHT22;56850;51.984;5.088;2023-03-29T04:48:31;8.80;67.50
69628;DHT22;56850;51.984;5.088;2023-03-29T04:50:59;8.80;67.50
69628;DHT22;56850;51.984;5.088;2023-03-29T04:53:26;8.80;67.50
69628;DHT22;56850;51.984;5.088;2023-03-29T04:55:53;8.80;67.60
69628;DHT22;56850;51.984;5.088;2023-03-29T04:58:39;8.80;67.60
69628;DHT22;56850;51.984;5.088;2023-03-29T05:01:08;8.80;67.50
69628;DHT22;56850;51.984;5.088;2023-03-29T05:03:39;8.80;67.50
69628;DHT22;56850;51.984;5.088;2023-03-29T05:06:16;8.90;67.60
69628;DHT22;56850;51.984;5.088;2023-03-29T05:08:43;8.90;67.50
69628;DHT22;56850;51.984;5.088;2023-03-29T05:11:23;8.90;67.50
69628;DHT22;56850;51.984;5.088;2023-03-29T05:13:52;8.90;67.40
69628;DHT22;56850;51.984;5.088;2023-03-29T05:16:21;8.90;67.40
69628;DHT22;56850;51.984;5.088;2023-03-29T05:18:48;8.90;67.50
69628;DHT22;56850;51.984;5.088;2023-03-29T05:21:16;8.90;67.60
69628;DHT22;56850;51.984;5.088;2023-03-29T05:23:45;8.90;67.60
69628;DHT22;56850;51.984;5.088;2023-03-29T05:26:30;8.90;67.60
69628;DHT22;56850;51.984;5.088;2023-03-29T05:28:57;8.90;67.60
69628;DHT22;56850;51.984;5.088;2023-03-29T05:31:24;8.90;67.50
69628;DHT22;56850;51.984;5.088;2023-03-29T05:33:53;8.90;67.60
69628;DHT22;56850;51.984;5.088;2023-03-29T05:36:20;8.90;67.60
69628;DHT22;56850;51.984;5.088;2023-03-29T05:38:48;8.90;67.70
69628;DHT22;56850;51.984;5.088;2023-03-29T05:41:17;8.90;67.70
69628;DHT22;56850;51.984;5.088;2023-03-29T05:44:13;8.90;67.80
69628;DHT22;56850;51.984;5.088;2023-03-29T05:46:42;9.00;67.70
69628;DHT22;56850;51.984;5.088;2023-03-29T05:49:13;9.00;67.70
69628;DHT22;56850;51.984;5.088;2023-03-29T05:51:52;9.00;67.80
69628;DHT22;56850;51.984;5.088;2023-03-29T05:54:23;9.00;67.80
69628;DHT22;56850;51.984;5.088;2023-03-29T05:56:50;9.00;67.90
69628;DHT22;56850;51.984;5.088;2023-03-29T05:59:17;9.00;68.00
69628;DHT22;56850;51.984;5.088;2023-03-29T06:01:46;9.00;68.10
69628;DHT22;56850;51.984;5.088;2023-03-29T06:04:18;9.00;68.20
69628;DHT22;56850;51.984;5.088;2023-03-29T06:07:24;9.00;68.20
69628;DHT22;56850;51.984;5.088;2023-03-29T06:10:10;9.00;68.40
69628;DHT22;56850;51.984;5.088;2023-03-29T06:12:41;9.00;68.70
69628;DHT22;56850;51.984;5.088;2023-03-29T06:15:08;9.10;68.90
69628;DHT22;56850;51.984;5.088;2023-03-29T06:17:42;9.10;68.90
69628;DHT22;56850;51.984;5.088;2023-03-29T06:20:12;9.10;68.90
69628;DHT22;56850;51.984;5.088;2023-03-29T06:22:42;9.10;69.10
69628;DHT22;56850;51.984;5.088;2023-03-29T06:25:10;9.10;69.20
69628;DHT22;56850;51.984;5.088;2023-03-29T06:27:38;9.10;69.30
69628;DHT22;56850;51.984;5.088;2023-03-29T06:30:06;9.20;69.40
69628;DHT22;56850;51.984;5.088;2023-03-29T06:32:34;9.20;69.50
69628;DHT22;56850;51.984;5.088;2023-03-29T06:35:07;9.20;69.70
69628;DHT22;56850;51.984;5.088;2023-03-29T06:37:37;9.30;69.70
69628;DHT22;56850;51.984;5.088;2023-03-29T06:40:20;9.30;69.80
69628;DHT22;56850;51.984;5.088;2023-03-29T06:42:47;9.40;69.90
69628;DHT22;56850;51.984;5.088;2023-03-29T06:45:34;9.40;70.00
69628;DHT22;56850;51.984;5.088;2023-03-29T06:48:06;9.40;70.00
69628;DHT22;56850;51.984;5.088;2023-03-29T06:50:36;9.50;70.10
69628;DHT22;56850;51.984;5.088;2023-03-29T06:53:08;9.50;70.10
69628;DHT22;56850;51.984;5.088;2023-03-29T06:55:37;9.50;70.10
69628;DHT22;56850;51.984;5.088;2023-03-29T06:58:25;9.60;70.20
69628;DHT22;56850;51.984;5.088;2023-03-29T07:00:58;9.60;70.30
69628;DHT22;56850;51.984;5.088;2023-03-29T07:03:41;9.60;70.30
69628;DHT22;56850;51.984;5.088;2023-03-29T07:06:12;9.60;70.30
69628;DHT22;56850;51.984;5.088;2023-03-29T07:08:41;9.70;70.30
